sensor_id;sensor_type;location;lat;lon;timestamp;temperature;humidity
6018;DHT22;3037;51.068;13.780;2023-08-06T00:01:48;15.90;99.90
6018;DHT22;3037;51.068;13.780;2023-08-06T00:04:14;15.90;99.90
6018;DHT22;3037;51.068;13.780;2023-08-06T00:06:39;15.90;99.90
6018;DHT22;3037;51.068;13.780;2023-08-06T00:09:05;16.00;99.90
6018;DHT22;3037;51.068;13.780;2023-08-06T00:11:31;15.90;99.90
6018;DHT22;3037;51.068;13.780;2023-08-06T00:13:56;15.90;99.90
6018;DHT22;3037;51.068;13.780;2023-08-06T00:16:22;15.90;99.90
6018;DHT22;3037;51.068;13.780;2023-08-06T00:18:47;15.90;99.90
6018;DHT22;3037;51.068;13.780;2023-08-06T00:21:13;15.90;99.90
6018;DHT22;3037;51.068;13.780;2023-08-06T00:23:39;15.90;99.90
6018;DHT22;3037;51.068;13.780;2023-08-06T00:26:05;15.80;99.90
6018;DHT22;3037;51.068;13.780;2023-08-06T00:28:30;15.80;99.90
6018;DHT22;3037;51.068;13.780;2023-08-06T00:30:56;15.80;99.90
6018;DHT22;3037;51.068;13.780;2023-08-06T00:33:22;15.80;99.90
6018;DHT22;3037;51.068;13.780;2023-08-06T00:35:48;15.70;99.90
6018;DHT22;3037;51.068;13.780;2023-08-06T00:38:13;15.70;99.90
6018;DHT22;3037;51.068;13.780;2023-08-06T00:40:39;15.70;99.90
6018;DHT22;3037;51.068;13.780;2023-08-06T00:43:05;15.70;99.90
6018;DHT22;3037;51.068;13.780;2023-08-06T00:45:31;15.80;99.90
6018;DHT22;3037;51.068;13.780;2023-08-06T00:47:58;15.70;99.90
6018;DHT22;3037;51.068;13.780;2023-08-06T00:50:25;15.80;99.90
6018;DHT22;3037;51.068;13.780;2023-08-06T00:52:51;15.70;99.90
6018;DHT22;3037;51.068;13.780;2023-08-06T00:55:17;15.70;99.90
6018;DHT22;3037;51.068;13.780;2023-08-06T00:57:42;15.80;99.90
6018;DHT22;3037;51.068;13.780;2023-08-06T01:00:09;15.70;99.90
6018;DHT22;3037;51.068;13.780;2023-08-06T01:02:34;15.70;99.90
6018;DHT22;3037;51.068;13.780;2023-08-06T01:05:00;15.80;99.90
6018;DHT22;3037;51.068;13.780;2023-08-06T01:10:50;15.70;99.90
6018;DHT22;3037;51.068;13.780;2023-08-06T01:16:01;15.70;99.90
6018;DHT22;3037;51.068;13.780;2023-08-06T01:18:28;15.70;99.90
6018;DHT22;3037;51.068;13.780;2023-08-06T01:20:54;15.60;99.90
6018;DHT22;3037;51.068;13.780;2023-08-06T01:23:20;15.60;99.90
6018;DHT22;3037;51.068;13.780;2023-08-06T01:25:48;15.60;99.90
6018;DHT22;3037;51.068;13.780;2023-08-06T01:28:40;15.60;99.90
6018;DHT22;3037;51.068;13.780;2023-08-06T01:31:18;15.60;99.90
6018;DHT22;3037;51.068;13.780;2023-08-06T01:33:48;15.60;99.90
6018;DHT22;3037;51.068;13.780;2023-08-06T01:36:16;15.70;99.90
6018;DHT22;3037;51.068;13.780;2023-08-06T01:38:43;15.70;99.90
6018;DHT22;3037;51.068;13.780;2023-08-06T01:41:09;15.70;99.90
6018;DHT22;3037;51.068;13.780;2023-08-06T01:43:34;15.70;99.90
6018;DHT22;3037;51.068;13.780;2023-08-06T01:46:00;15.70;99.90
6018;DHT22;3037;51.068;13.780;2023-08-06T01:48:25;15.70;99.90
6018;DHT22;3037;51.068;13.780;2023-08-06T01:50:51;15.70;99.90
6018;DHT22;3037;51.068;13.780;2023-08-06T01:53:16;15.70;99.90
6018;DHT22;3037;51.068;13.780;2023-08-06T01:55:42;15.70;99.90
6018;DHT22;3037;51.068;13.780;2023-08-06T01:58:07;15.70;99.90
6018;DHT22;3037;51.068;13.780;2023-08-06T02:00:33;15.60;99.90
6018;DHT22;3037;51.068;13.780;2023-08-06T02:02:58;15.70;99.90
6018;DHT22;3037;51.068;13.780;2023-08-06T02:05:24;15.60;99.90
6018;DHT22;3037;51.068;13.780;2023-08-06T02:07:49;15.60;99.90
6018;DHT22;3037;51.068;13.780;2023-08-06T02:10:15;15.60;99.90
6018;DHT22;3037;51.068;13.780;2023-08-06T02:12:40;15.70;99.90
6018;DHT22;3037;51.068;13.780;2023-08-06T02:15:06;15.60;99.90
6018;DHT22;3037;51.068;13.780;2023-08-06T02:17:32;15.70;99.90
6018;DHT22;3037;51.068;13.780;2023-08-06T02:19:57;15.70;99.90
6018;DHT22;3037;51.068;13.780;2023-08-06T02:22:23;15.70;99.90
6018;DHT22;3037;51.068;13.780;2023-08-06T02:24:49;15.70;99.90
6018;DHT22;3037;51.068;13.780;2023-08-06T02:27:15;15.70;99.90
6018;DHT22;3037;51.068;13.780;2023-08-06T02:29:40;15.80;99.90
6018;DHT22;3037;51.068;13.780;2023-08-06T02:32:07;15.70;99.90
6018;DHT22;3037;51.068;13.780;2023-08-06T02:34:32;15.70;99.90
6018;DHT22;3037;51.068;13.780;2023-08-06T02:36:58;15.70;99.90
6018;DHT22;3037;51.068;13.780;2023-08-06T02:39:23;15.70;99.90
6018;DHT22;3037;51.068;13.780;2023-08-06T02:41:49;15.80;99.90
6018;DHT22;3037;51.068;13.780;2023-08-06T02:44:15;15.80;99.90
6018;DHT22;3037;51.068;13.780;2023-08-06T02:46:40;15.80;99.90
6018;DHT22;3037;51.068;13.780;2023-08-06T02:49:06;15.70;99.90
6018;DHT22;3037;51.068;13.780;2023-08-06T02:51:32;15.60;99.90
6018;DHT22;3037;51.068;13.780;2023-08-06T02:53:57;15.60;99.90
6018;DHT22;3037;51.068;13.780;2023-08-06T02:56:23;15.70;99.90
6018;DHT22;3037;51.068;13.780;2023-08-06T02:58:48;15.60;99.90
6018;DHT22;3037;51.068;13.780;2023-08-06T03:01:14;15.70;99.90
6018;DHT22;3037;51.068;13.780;2023-08-06T03:03:39;15.60;99.90
6018;DHT22;3037;51.068;13.780;2023-08-06T03:06:05;15.70;99.90
6018;DHT22;3037;51.068;13.780;2023-08-06T03:08:30;15.70;99.90
6018;DHT22;3037;51.068;13.780;2023-08-06T03:10:56;15.80;99.90
6018;DHT22;3037;51.068;13.780;2023-08-06T03:13:21;15.70;99.90
6018;DHT22;3037;51.068;13.780;2023-08-06T03:15:58;15.70;99.90
6018;DHT22;3037;51.068;13.780;2023-08-06T03:18:24;15.60;99.90
6018;DHT22;3037;51.068;13.780;2023-08-06T03:20:51;15.50;99.90
6018;DHT22;3037;51.068;13.780;2023-08-06T03:23:17;15.60;99.90
6018;DHT22;3037;51.068;13.780;2023-08-06T03:25:43;15.60;99.90
6018;DHT22;3037;51.068;13.780;2023-08-06T03:28:08;15.60;99.90
6018;DHT22;3037;51.068;13.780;2023-08-06T03:30:34;15.60;99.90
6018;DHT22;3037;51.068;13.780;2023-08-06T03:33:00;15.60;99.90
6018;DHT22;3037;51.068;13.780;2023-08-06T03:35:25;15.50;99.90
6018;DHT22;3037;51.068;13.780;2023-08-06T03:37:51;15.50;99.90
6018;DHT22;3037;51.068;13.780;2023-08-06T03:40:16;15.50;99.90
6018;DHT22;3037;51.068;13.780;2023-08-06T03:42:42;15.50;99.90
6018;DHT22;3037;51.068;13.780;2023-08-06T03:45:08;15.60;99.90
6018;DHT22;3037;51.068;13.780;2023-08-06T03:47:34;15.60;99.90
6018;DHT22;3037;51.068;13.780;2023-08-06T03:49:59;15.50;99.90
6018;DHT22;3037;51.068;13.780;2023-08-06T03:52:25;15.50;99.90
6018;DHT22;3037;51.068;13.780;2023-08-06T03:54:50;15.40;99.90
6018;DHT22;3037;51.068;13.780;2023-08-06T03:57:17;15.40;99.90
6018;DHT22;3037;51.068;13.780;2023-08-06T03:59:42;15.40;99.90
6018;DHT22;3037;51.068;13.780;2023-08-06T04:02:08;15.40;99.90
6018;DHT22;3037;51.068;13.780;2023-08-06T04:04:34;15.40;99.90
6018;DHT22;3037;51.068;13.780;2023-08-06T04:06:59;15.50;99.90
6018;DHT22;3037;51.068;13.780;2023-08-06T04:09:25;15.50;99.90
6018;DHT22;3037;51.068;13.780;2023-08-06T04:11:50;15.50;99.90
6018;DHT22;3037;51.068;13.780;2023-08-06T04:14:16;15.50;99.90
6018;DHT22;3037;51.068;13.780;2023-08-06T04:16:41;15.50;99.90
6018;DHT22;3037;51.068;13.780;2023-08-06T04:19:07;15.60;99.90
6018;DHT22;3037;51.068;13.780;2023-08-06T04:21:32;15.50;99.90
6018;DHT22;3037;51.068;13.780;2023-08-06T04:23:58;15.40;99.90
6018;DHT22;3037;51.068;13.780;2023-08-06T04:26:23;15.40;99.90
6018;DHT22;3037;51.068;13.780;2023-08-06T04:28:49;15.40;99.90
6018;DHT22;3037;51.068;13.780;2023-08-06T04:31:15;15.50;99.90
6018;DHT22;3037;51.068;13.780;2023-08-06T04:33:40;15.50;99.90
6018;DHT22;3037;51.068;13.780;2023-08-06T04:38:33;15.50;99.90
6018;DHT22;3037;51.068;13.780;2023-08-06T04:40:59;15.50;99.90
6018;DHT22;3037;51.068;13.780;2023-08-06T04:43:25;15.40;99.90
6018;DHT22;3037;51.068;13.780;2023-08-06T04:45:51;15.40;99.90
6018;DHT22;3037;51.068;13.780;2023-08-06T04:48:18;15.50;99.90
6018;DHT22;3037;51.068;13.780;2023-08-06T04:50:48;15.60;99.90
6018;DHT22;3037;51.068;13.780;2023-08-06T04:53:14;15.60;99.90
6018;DHT22;3037;51.068;13.780;2023-08-06T04:55:39;15.60;99.90
6018;DHT22;3037;51.068;13.780;2023-08-06T04:58:05;15.50;99.90
6018;DHT22;3037;51.068;13.780;2023-08-06T05:00:31;15.60;99.90
6018;DHT22;3037;51.068;13.780;2023-08-06T05:02:59;15.50;99.90
6018;DHT22;3037;51.068;13.780;2023-08-06T05:05:24;15.60;99.90
6018;DHT22;3037;51.068;13.780;2023-08-06T05:07:50;15.60;99.90
6018;DHT22;3037;51.068;13.780;2023-08-06T05:10:16;15.70;99.90
6018;DHT22;3037;51.068;13.780;2023-08-06T05:12:41;15.60;99.90
6018;DHT22;3037;51.068;13.780;2023-08-06T05:15:08;15.50;99.90
6018;DHT22;3037;51.068;13.780;2023-08-06T05:17:33;15.60;99.90
6018;DHT22;3037;51.068;13.780;2023-08-06T05:19:59;15.60;99.90
6018;DHT22;3037;51.068;13.780;2023-08-06T05:22:25;15.70;99.90
6018;DHT22;3037;51.068;13.780;2023-08-06T05:24:50;15.80;99.90
6018;DHT22;3037;51.068;13.780;2023-08-06T05:27:16;15.70;99.90
6018;DHT22;3037;51.068;13.780;2023-08-06T05:29:44;15.20;99.90
6018;DHT22;3037;51.068;13.780;2023-08-06T05:32:10;15.70;99.90
6018;DHT22;3037;51.068;13.780;2023-08-06T05:34:35;15.70;99.90
6018;DHT22;3037;51.068;13.780;2023-08-06T05:37:01;15.80;99.90
6018;DHT22;3037;51.068;13.780;2023-08-06T05:39:26;16.00;99.90
6018;DHT22;3037;51.068;13.780;2023-08-06T05:41:52;16.00;99.90
6018;DHT22;3037;51.068;13.780;2023-08-06T05:44:18;16.00;99.90
6018;DHT22;3037;51.068;13.780;2023-08-06T05:46:43;16.00;99.90
6018;DHT22;3037;51.068;13.780;2023-08-06T05:49:09;16.10;99.90
6018;DHT22;3037;51.068;13.780;2023-08-06T05:51:34;16.00;99.90
6018;DHT22;3037;51.068;13.780;2023-08-06T05:54:00;16.10;99.90
6018;DHT22;3037;51.068;13.780;2023-08-06T05:56:25;16.00;99.90
6018;DHT22;3037;51.068;13.780;2023-08-06T05:58:51;16.00;99.90
6018;DHT22;3037;51.068;13.780;2023-08-06T06:01:18;16.00;99.90
6018;DHT22;3037;51.068;13.780;2023-08-06T06:03:44;16.10;99.90
6018;DHT22;3037;51.068;13.780;2023-08-06T06:06:09;16.10;99.90
6018;DHT22;3037;51.068;13.780;2023-08-06T06:08:35;16.10;99.90
6018;DHT22;3037;51.068;13.780;2023-08-06T06:11:00;16.20;99.90
6018;DHT22;3037;51.068;13.780;2023-08-06T06:13:26;16.40;99.90
6018;DHT22;3037;51.068;13.780;2023-08-06T06:15:54;16.50;99.90
6018;DHT22;3037;51.068;13.780;2023-08-06T06:18:20;16.40;99.90
6018;DHT22;3037;51.068;13.780;2023-08-06T06:20:46;16.60;99.90
6018;DHT22;3037;51.068;13.780;2023-08-06T06:23:11;16.70;99.90
6018;DHT22;3037;51.068;13.780;2023-08-06T06:25:42;16.50;99.90
6018;DHT22;3037;51.068;13.780;2023-08-06T06:28:08;16.70;99.90
6018;DHT22;3037;51.068;13.780;2023-08-06T06:30:34;16.70;99.90
6018;DHT22;3037;51.068;13.780;2023-08-06T06:33:00;16.80;99.90
6018;DHT22;3037;51.068;13.780;2023-08-06T06:35:25;17.00;99.90
6018;DHT22;3037;51.068;13.780;2023-08-06T06:37:51;17.10;99.90
6018;DHT22;3037;51.068;13.780;2023-08-06T06:40:17;16.90;99.90
6018;DHT22;3037;51.068;13.780;2023-08-06T06:42:42;16.90;99.90
6018;DHT22;3037;51.068;13.780;2023-08-06T06:45:08;16.90;99.90
6018;DHT22;3037;51.068;13.780;2023-08-06T06:47:34;17.10;99.90
6018;DHT22;3037;51.068;13.780;2023-08-06T06:50:00;17.00;99.90
6018;DHT22;3037;51.068;13.780;2023-08-06T06:52:25;17.10;99.90
6018;DHT22;3037;51.068;13.780;2023-08-06T06:54:51;17.50;99.90
6018;DHT22;3037;51.068;13.780;2023-08-06T06:57:16;17.60;99.90
6018;DHT22;3037;51.068;13.780;2023-08-06T06:59:42;17.50;99.90
6018;DHT22;3037;51.068;13.780;2023-08-06T07:02:07;17.50;99.90
6018;DHT22;3037;51.068;13.780;2023-08-06T07:04:33;17.40;99.90
6018;DHT22;3037;51.068;13.780;2023-08-06T07:06:58;17.60;99.90
6018;DHT22;3037;51.068;13.780;2023-08-06T07:09:24;17.50;99.90
6018;DHT22;3037;51.068;13.780;2023-08-06T07:11:50;17.70;99.90
6018;DHT22;3037;51.068;13.780;2023-08-06T07:14:15;17.90;99.90
6018;DHT22;3037;51.068;13.780;2023-08-06T07:16:41;17.80;99.90
6018;DHT22;3037;51.068;13.780;2023-08-06T07:19:06;17.80;99.90
6018;DHT22;3037;51.068;13.780;2023-08-06T07:21:32;17.80;99.90
6018;DHT22;3037;51.068;13.780;2023-08-06T07:23:58;17.90;99.90
6018;DHT22;3037;51.068;13.780;2023-08-06T07:26:24;18.10;99.90
6018;DHT22;3037;51.068;13.780;2023-08-06T07:28:50;18.20;99.90
6018;DHT22;3037;51.068;13.780;2023-08-06T07:31:16;18.30;99.90
6018;DHT22;3037;51.068;13.780;2023-08-06T07:33:41;18.20;99.90
6018;DHT22;3037;51.068;13.780;2023-08-06T07:36:14;18.20;99.90
6018;DHT22;3037;51.068;13.780;2023-08-06T07:38:40;18.30;99.90
6018;DHT22;3037;51.068;13.780;2023-08-06T07:41:06;18.20;99.90
6018;DHT22;3037;51.068;13.780;2023-08-06T07:43:32;18.10;99.90
6018;DHT22;3037;51.068;13.780;2023-08-06T07:45:59;18.10;99.90
6018;DHT22;3037;51.068;13.780;2023-08-06T07:48:27;18.00;99.90
6018;DHT22;3037;51.068;13.780;2023-08-06T07:50:54;18.00;99.90
6018;DHT22;3037;51.068;13.780;2023-08-06T07:53:21;17.90;99.90
6018;DHT22;3037;51.068;13.780;2023-08-06T07:55:51;17.80;99.90
6018;DHT22;3037;51.068;13.780;2023-08-06T07:58:17;17.90;99.90
6018;DHT22;3037;51.068;13.780;2023-08-06T08:00:42;18.20;99.90
6018;DHT22;3037;51.068;13.780;2023-08-06T08:03:11;18.10;99.90
6018;DHT22;3037;51.068;13.780;2023-08-06T08:05:37;18.20;99.90
6018;DHT22;3037;51.068;13.780;2023-08-06T08:08:03;18.20;99.90
6018;DHT22;3037;51.068;13.780;2023-08-06T08:10:28;18.10;99.90
6018;DHT22;3037;51.068;13.780;2023-08-06T08:12:54;17.90;99.90
6018;DHT22;3037;51.068;13.780;2023-08-06T08:15:20;17.80;99.90
6018;DHT22;3037;51.068;13.780;2023-08-06T08:17:46;17.80;99.90
6018;DHT22;3037;51.068;13.780;2023-08-06T08:20:13;17.90;99.90
6018;DHT22;3037;51.068;13.780;2023-08-06T08:22:39;17.90;99.90
6018;DHT22;3037;51.068;13.780;2023-08-06T08:25:04;18.00;99.90
6018;DHT22;3037;51.068;13.780;2023-08-06T08:27:30;18.40;99.90
6018;DHT22;3037;51.068;13.780;2023-08-06T08:29:56;18.80;99.90
6018;DHT22;3037;51.068;13.780;2023-08-06T08:32:21;19.10;99.90
6018;DHT22;3037;51.068;13.780;2023-08-06T08:34:47;19.00;99.90
6018;DHT22;3037;51.068;13.780;2023-08-06T08:37:13;19.00;99.90
6018;DHT22;3037;51.068;13.780;2023-08-06T08:39:39;19.00;99.90
6018;DHT22;3037;51.068;13.780;2023-08-06T08:42:05;18.70;99.90
6018;DHT22;3037;51.068;13.780;2023-08-06T08:44:32;18.60;99.90
6018;DHT22;3037;51.068;13.780;2023-08-06T08:46:59;18.80;99.90
6018;DHT22;3037;51.068;13.780;2023-08-06T08:49:26;18.90;99.90
6018;DHT22;3037;51.068;13.780;2023-08-06T08:51:53;18.90;99.90
6018;DHT22;3037;51.068;13.780;2023-08-06T08:54:20;18.80;99.90
6018;DHT22;3037;51.068;13.780;2023-08-06T08:56:48;19.00;99.90
6018;DHT22;3037;51.068;13.780;2023-08-06T08:59:13;19.10;99.90
6018;DHT22;3037;51.068;13.780;2023-08-06T09:01:40;19.00;99.90
6018;DHT22;3037;51.068;13.780;2023-08-06T09:04:08;19.30;99.90
6018;DHT22;3037;51.068;13.780;2023-08-06T09:06:37;19.50;45.60
6018;DHT22;3037;51.068;13.780;2023-08-06T09:09:12;19.10;99.90
6018;DHT22;3037;51.068;13.780;2023-08-06T09:11:45;19.20;1.70
6018;DHT22;3037;51.068;13.780;2023-08-06T09:14:11;19.40;99.90
6018;DHT22;3037;51.068;13.780;2023-08-06T09:16:37;19.50;15.80
6018;DHT22;3037;51.068;13.780;2023-08-06T09:19:13;19.20;1.00
6018;DHT22;3037;51.068;13.780;2023-08-06T09:21:41;19.00;91.30
6018;DHT22;3037;51.068;13.780;2023-08-06T09:24:11;19.00;99.90
6018;DHT22;3037;51.068;13.780;2023-08-06T09:26:38;18.90;99.90
6018;DHT22;3037;51.068;13.780;2023-08-06T09:29:08;18.60;99.90
6018;DHT22;3037;51.068;13.780;2023-08-06T09:31:40;18.70;99.90
6018;DHT22;3037;51.068;13.780;2023-08-06T09:34:20;19.00;99.90
6018;DHT22;3037;51.068;13.780;2023-08-06T09:36:53;19.30;46.00
6018;DHT22;3037;51.068;13.780;2023-08-06T09:39:27;19.40;99.90
6018;DHT22;3037;51.068;13.780;2023-08-06T09:42:00;19.20;87.00
6018;DHT22;3037;51.068;13.780;2023-08-06T09:44:29;19.30;99.90
6018;DHT22;3037;51.068;13.780;2023-08-06T09:46:57;19.00;99.90
6018;DHT22;3037;51.068;13.780;2023-08-06T09:49:41;18.80;99.90
6018;DHT22;3037;51.068;13.780;2023-08-06T09:52:12;19.10;99.90
6018;DHT22;3037;51.068;13.780;2023-08-06T09:54:38;18.80;99.90
6018;DHT22;3037;51.068;13.780;2023-08-06T09:57:03;18.90;99.90
6018;DHT22;3037;51.068;13.780;2023-08-06T09:59:30;18.90;99.90
6018;DHT22;3037;51.068;13.780;2023-08-06T10:01:57;19.10;99.90
6018;DHT22;3037;51.068;13.780;2023-08-06T10:04:24;19.60;99.90
6018;DHT22;3037;51.068;13.780;2023-08-06T10:06:49;19.80;77.10
6018;DHT22;3037;51.068;13.780;2023-08-06T10:09:15;19.80;14.60
6018;DHT22;3037;51.068;13.780;2023-08-06T10:11:42;19.90;1.00
6018;DHT22;3037;51.068;13.780;2023-08-06T10:14:27;20.00;1.00
6018;DHT22;3037;51.068;13.780;2023-08-06T10:16:54;19.70;1.00
6018;DHT22;3037;51.068;13.780;2023-08-06T10:19:22;19.60;1.00
6018;DHT22;3037;51.068;13.780;2023-08-06T10:22:14;19.70;99.90
6018;DHT22;3037;51.068;13.780;2023-08-06T10:24:52;19.90;1.00
6018;DHT22;3037;51.068;13.780;2023-08-06T10:27:34;20.30;1.00
6018;DHT22;3037;51.068;13.780;2023-08-06T10:32:47;20.60;1.00
6018;DHT22;3037;51.068;13.780;2023-08-06T10:35:37;20.90;1.00
6018;DHT22;3037;51.068;13.780;2023-08-06T10:38:15;21.10;1.00
6018;DHT22;3037;51.068;13.780;2023-08-06T10:45:59;20.60;99.90
6018;DHT22;3037;51.068;13.780;2023-08-06T10:48:41;20.40;99.90
6018;DHT22;3037;51.068;13.780;2023-08-06T10:51:11;20.40;1.00
6018;DHT22;3037;51.068;13.780;2023-08-06T10:53:38;20.40;1.00
6018;DHT22;3037;51.068;13.780;2023-08-06T10:56:21;20.60;1.00
6018;DHT22;3037;51.068;13.780;2023-08-06T10:58:54;21.60;99.90
6018;DHT22;3037;51.068;13.780;2023-08-06T11:01:21;21.80;99.90
6018;DHT22;3037;51.068;13.780;2023-08-06T11:03:47;21.90;1.00
6018;DHT22;3037;51.068;13.780;2023-08-06T11:06:22;22.10;99.90
6018;DHT22;3037;51.068;13.780;2023-08-06T11:08:54;21.80;1.00
6018;DHT22;3037;51.068;13.780;2023-08-06T11:11:21;21.50;1.00
6018;DHT22;3037;51.068;13.780;2023-08-06T11:13:49;21.00;99.90
6018;DHT22;3037;51.068;13.780;2023-08-06T11:16:22;21.10;99.90
6018;DHT22;3037;51.068;13.780;2023-08-06T11:18:50;21.00;1.00
6018;DHT22;3037;51.068;13.780;2023-08-06T11:21:19;20.90;1.00
6018;DHT22;3037;51.068;13.780;2023-08-06T11:23:45;20.70;99.90
6018;DHT22;3037;51.068;13.780;2023-08-06T11:26:10;21.20;1.00
6018;DHT22;3037;51.068;13.780;2023-08-06T11:28:36;21.30;1.00
6018;DHT22;3037;51.068;13.780;2023-08-06T11:31:01;21.30;1.00
6018;DHT22;3037;51.068;13.780;2023-08-06T11:33:29;21.50;1.00
6018;DHT22;3037;51.068;13.780;2023-08-06T11:35:55;21.40;1.00
6018;DHT22;3037;51.068;13.780;2023-08-06T11:38:24;21.50;99.90
6018;DHT22;3037;51.068;13.780;2023-08-06T11:40:50;21.60;99.90
6018;DHT22;3037;51.068;13.780;2023-08-06T11:43:18;22.10;99.90
6018;DHT22;3037;51.068;13.780;2023-08-06T11:45:46;22.20;24.40
6018;DHT22;3037;51.068;13.780;2023-08-06T11:48:11;22.30;99.90
6018;DHT22;3037;51.068;13.780;2023-08-06T11:50:38;21.90;99.90
6018;DHT22;3037;51.068;13.780;2023-08-06T11:53:06;21.80;99.90
6018;DHT22;3037;51.068;13.780;2023-08-06T11:55:32;22.00;99.90
6018;DHT22;3037;51.068;13.780;2023-08-06T11:57:58;21.60;99.90
6018;DHT22;3037;51.068;13.780;2023-08-06T12:00:24;22.00;99.90
6018;DHT22;3037;51.068;13.780;2023-08-06T12:02:50;22.20;23.40
6018;DHT22;3037;51.068;13.780;2023-08-06T12:05:18;22.10;45.50
6018;DHT22;3037;51.068;13.780;2023-08-06T12:07:48;22.00;99.90
6018;DHT22;3037;51.068;13.780;2023-08-06T12:10:14;21.90;99.90
6018;DHT22;3037;51.068;13.780;2023-08-06T12:12:40;21.80;71.80
6018;DHT22;3037;51.068;13.780;2023-08-06T12:15:07;21.90;62.20
6018;DHT22;3037;51.068;13.780;2023-08-06T12:17:33;22.40;1.00
6018;DHT22;3037;51.068;13.780;2023-08-06T12:19:59;22.30;1.00
6018;DHT22;3037;51.068;13.780;2023-08-06T12:22:24;22.10;96.20
6018;DHT22;3037;51.068;13.780;2023-08-06T12:24:50;21.90;35.70
6018;DHT22;3037;51.068;13.780;2023-08-06T12:27:15;21.60;99.90
6018;DHT22;3037;51.068;13.780;2023-08-06T12:29:46;22.00;64.90
6018;DHT22;3037;51.068;13.780;2023-08-06T12:32:12;22.10;1.00
6018;DHT22;3037;51.068;13.780;2023-08-06T12:34:41;21.70;55.80
6018;DHT22;3037;51.068;13.780;2023-08-06T12:37:08;21.70;99.90
6018;DHT22;3037;51.068;13.780;2023-08-06T12:39:34;21.60;99.90
6018;DHT22;3037;51.068;13.780;2023-08-06T12:42:01;21.70;99.90
6018;DHT22;3037;51.068;13.780;2023-08-06T12:44:27;21.70;99.90
6018;DHT22;3037;51.068;13.780;2023-08-06T12:46:53;21.80;99.90
6018;DHT22;3037;51.068;13.780;2023-08-06T12:49:19;21.80;11.80
6018;DHT22;3037;51.068;13.780;2023-08-06T12:51:48;22.00;1.00
6018;DHT22;3037;51.068;13.780;2023-08-06T12:54:16;22.30;1.00
6018;DHT22;3037;51.068;13.780;2023-08-06T12:56:41;21.90;1.00
6018;DHT22;3037;51.068;13.780;2023-08-06T12:59:07;21.70;1.00
6018;DHT22;3037;51.068;13.780;2023-08-06T13:01:32;21.70;25.50
6018;DHT22;3037;51.068;13.780;2023-08-06T13:03:59;21.60;99.90
6018;DHT22;3037;51.068;13.780;2023-08-06T13:06:24;21.40;99.90
6018;DHT22;3037;51.068;13.780;2023-08-06T13:08:50;21.50;99.90
6018;DHT22;3037;51.068;13.780;2023-08-06T13:11:15;21.30;57.00
6018;DHT22;3037;51.068;13.780;2023-08-06T13:13:41;21.80;99.90
6018;DHT22;3037;51.068;13.780;2023-08-06T13:16:06;21.80;64.50
6018;DHT22;3037;51.068;13.780;2023-08-06T13:18:32;22.00;22.40
6018;DHT22;3037;51.068;13.780;2023-08-06T13:20:58;21.80;2.70
6018;DHT22;3037;51.068;13.780;2023-08-06T13:23:23;21.80;1.00
6018;DHT22;3037;51.068;13.780;2023-08-06T13:25:49;21.80;29.80
6018;DHT22;3037;51.068;13.780;2023-08-06T13:28:14;22.00;4.90
6018;DHT22;3037;51.068;13.780;2023-08-06T13:30:40;22.00;1.00
6018;DHT22;3037;51.068;13.780;2023-08-06T13:33:11;21.80;46.90
6018;DHT22;3037;51.068;13.780;2023-08-06T13:35:36;22.30;1.00
6018;DHT22;3037;51.068;13.780;2023-08-06T13:38:02;22.10;31.60
6018;DHT22;3037;51.068;13.780;2023-08-06T13:40:33;22.00;1.00
6018;DHT22;3037;51.068;13.780;2023-08-06T13:42:59;22.10;1.00
6018;DHT22;3037;51.068;13.780;2023-08-06T13:45:24;22.10;1.00
6018;DHT22;3037;51.068;13.780;2023-08-06T13:47:50;22.10;1.00
6018;DHT22;3037;51.068;13.780;2023-08-06T13:50:16;22.10;1.00
6018;DHT22;3037;51.068;13.780;2023-08-06T13:52:41;22.60;1.00
6018;DHT22;3037;51.068;13.780;2023-08-06T13:55:07;22.60;1.00
6018;DHT22;3037;51.068;13.780;2023-08-06T13:57:34;22.30;1.00
6018;DHT22;3037;51.068;13.780;2023-08-06T14:00:00;22.60;1.00
6018;DHT22;3037;51.068;13.780;2023-08-06T14:02:25;22.70;1.00
6018;DHT22;3037;51.068;13.780;2023-08-06T14:04:52;22.30;1.00
6018;DHT22;3037;51.068;13.780;2023-08-06T14:07:18;22.40;1.00
6018;DHT22;3037;51.068;13.780;2023-08-06T14:09:43;22.10;1.00
6018;DHT22;3037;51.068;13.780;2023-08-06T14:12:09;22.00;1.00
6018;DHT22;3037;51.068;13.780;2023-08-06T14:14:35;22.00;1.00
6018;DHT22;3037;51.068;13.780;2023-08-06T14:17:01;21.80;1.00
6018;DHT22;3037;51.068;13.780;2023-08-06T14:19:27;21.80;1.00
6018;DHT22;3037;51.068;13.780;2023-08-06T14:21:52;22.00;1.00
6018;DHT22;3037;51.068;13.780;2023-08-06T14:24:18;22.20;1.00
6018;DHT22;3037;51.068;13.780;2023-08-06T14:26:44;22.20;1.00
6018;DHT22;3037;51.068;13.780;2023-08-06T14:29:10;22.20;1.00
6018;DHT22;3037;51.068;13.780;2023-08-06T14:31:35;21.70;1.00
6018;DHT22;3037;51.068;13.780;2023-08-06T14:34:01;21.80;1.00
6018;DHT22;3037;51.068;13.780;2023-08-06T14:36:26;21.80;1.00
6018;DHT22;3037;51.068;13.780;2023-08-06T14:38:52;21.70;1.00
6018;DHT22;3037;51.068;13.780;2023-08-06T14:41:17;21.70;1.00
6018;DHT22;3037;51.068;13.780;2023-08-06T14:43:43;21.60;1.00
6018;DHT22;3037;51.068;13.780;2023-08-06T14:46:08;21.60;1.00
6018;DHT22;3037;51.068;13.780;2023-08-06T14:48:34;21.40;71.40
6018;DHT22;3037;51.068;13.780;2023-08-06T14:50:59;21.40;1.00
6018;DHT22;3037;51.068;13.780;2023-08-06T14:53:25;21.10;5.40
6018;DHT22;3037;51.068;13.780;2023-08-06T14:55:50;21.40;99.90
6018;DHT22;3037;51.068;13.780;2023-08-06T14:58:16;21.70;29.40
6018;DHT22;3037;51.068;13.780;2023-08-06T15:00:41;21.80;1.00
6018;DHT22;3037;51.068;13.780;2023-08-06T15:03:07;21.30;37.10
6018;DHT22;3037;51.068;13.780;2023-08-06T15:05:33;21.20;99.90
6018;DHT22;3037;51.068;13.780;2023-08-06T15:07:59;21.10;71.10
6018;DHT22;3037;51.068;13.780;2023-08-06T15:10:24;21.20;99.90
6018;DHT22;3037;51.068;13.780;2023-08-06T15:12:50;21.10;82.60
6018;DHT22;3037;51.068;13.780;2023-08-06T15:15:16;21.20;99.90
6018;DHT22;3037;51.068;13.780;2023-08-06T15:17:41;21.50;99.90
6018;DHT22;3037;51.068;13.780;2023-08-06T15:20:07;21.50;99.90
6018;DHT22;3037;51.068;13.780;2023-08-06T15:22:33;21.60;99.90
6018;DHT22;3037;51.068;13.780;2023-08-06T15:25:02;21.20;99.90
6018;DHT22;3037;51.068;13.780;2023-08-06T15:27:29;21.40;99.90
6018;DHT22;3037;51.068;13.780;2023-08-06T15:29:54;21.10;99.90
6018;DHT22;3037;51.068;13.780;2023-08-06T15:32:20;20.90;1.00
6018;DHT22;3037;51.068;13.780;2023-08-06T15:34:48;20.70;1.00
6018;DHT22;3037;51.068;13.780;2023-08-06T15:37:13;20.60;1.00
6018;DHT22;3037;51.068;13.780;2023-08-06T15:39:39;20.40;1.00
6018;DHT22;3037;51.068;13.780;2023-08-06T15:42:06;20.40;1.00
6018;DHT22;3037;51.068;13.780;2023-08-06T15:44:31;20.20;1.00
6018;DHT22;3037;51.068;13.780;2023-08-06T15:46:57;20.00;1.00
6018;DHT22;3037;51.068;13.780;2023-08-06T15:49:22;20.00;99.90
6018;DHT22;3037;51.068;13.780;2023-08-06T15:51:48;19.90;99.90
6018;DHT22;3037;51.068;13.780;2023-08-06T15:54:14;19.80;1.00
6018;DHT22;3037;51.068;13.780;2023-08-06T15:56:39;19.80;1.00
6018;DHT22;3037;51.068;13.780;2023-08-06T15:59:28;19.60;99.90
6018;DHT22;3037;51.068;13.780;2023-08-06T16:01:54;19.40;99.90
6018;DHT22;3037;51.068;13.780;2023-08-06T16:04:22;19.40;99.90